Terminal Aerodrome Forecast
Issued by NWS Denver/Boulder, CO

Home | Current Version | Previous Version | Text Only | Print | Product List | Glossary On
Versions: 1 2 3 4 5 6 7 8 9 10 11 12 13 14 15 16 17 18 19 20 21 22 23 24 25 26 27 28 29 30 31 32 33 34 35 36 37 38 39 40 41 42 43 44 45 46 47 48 49 50
000
FTUS45 KBOU 260445 AAD
TAFDEN
TAF AMD
KDEN 260445Z 2605/2706 05014G22KT P6SM VCSH SCT008 BKN020 OVC100
      TEMPO 2605/2607 5SM -SN BR BKN007
     FM260700 07012KT P6SM VCSH BKN012 OVC025
      TEMPO 2607/2611 2SM -SN BR BKN006
     FM261600 17007KT P6SM FEW025 BKN060
     FM261800 26007KT P6SM SCT060 SCT140
     FM270200 22007KT P6SM FEW140=

USA.gov is the U.S. government's official web portal to all federal, state and local government web resources and services.